createdAt,value
2023-01-07T00:01:24.962Z,101003.75
2023-01-07T00:03:52.664Z,100999.53
2023-01-07T00:06:23.369Z,100998.59
2023-01-07T00:08:51.804Z,101006.69
2023-01-07T00:11:21.117Z,101009.66
2023-01-07T00:13:52.041Z,101017.22
2023-01-07T00:16:21.958Z,101014.47
2023-01-07T00:18:50.404Z,101008.00
2023-01-07T00:21:18.538Z,101004.97
2023-01-07T00:23:46.426Z,101022.38
2023-01-07T00:26:18.591Z,101017.75
2023-01-07T00:28:47.717Z,101017.69
2023-01-07T00:31:20.465Z,101018.63
2023-01-07T00:33:54.335Z,101017.56
2023-01-07T00:36:27.415Z,101015.25
2023-01-07T00:38:55.460Z,101008.69
2023-01-07T00:41:22.711Z,101009.50
2023-01-07T00:43:49.310Z,101009.75
2023-01-07T00:46:16.230Z,101009.91
2023-01-07T00:48:44.902Z,101019.81
2023-01-07T00:51:13.544Z,101019.81
2023-01-07T00:53:40.153Z,101017.09
2023-01-07T00:56:06.960Z,101021.19
2023-01-07T00:58:33.531Z,101015.47
2023-01-07T01:01:01.956Z,101024.03
2023-01-07T01:03:30.591Z,101030.31
2023-01-07T01:06:02.628Z,101018.84
2023-01-07T01:08:29.247Z,101022.63
2023-01-07T01:10:56.053Z,101030.75
2023-01-07T01:13:22.690Z,101031.63
2023-01-07T01:15:49.748Z,101023.78
2023-01-07T01:18:16.503Z,101028.25
2023-01-07T01:20:43.218Z,101027.53
2023-01-07T01:23:09.827Z,101022.41
2023-01-07T01:25:36.407Z,101026.97
2023-01-07T01:28:03.428Z,101027.97
2023-01-07T01:30:29.987Z,101021.94
2023-01-07T01:32:56.531Z,101024.66
2023-01-07T01:35:23.183Z,101015.91
2023-01-07T01:37:50.030Z,101019.69
2023-01-07T01:40:16.697Z,101013.44
2023-01-07T01:42:43.300Z,101018.06
2023-01-07T01:45:11.856Z,101019.94
2023-01-07T01:47:47.261Z,101014.13
2023-01-07T01:50:42.279Z,101005.56
2023-01-07T01:53:14.220Z,101012.53
2023-01-07T01:55:47.535Z,101010.16
2023-01-07T01:58:20.506Z,101009.59
2023-01-07T02:00:47.334Z,101002.06
2023-01-07T02:03:18.786Z,101008.38
2023-01-07T02:05:46.256Z,101000.47
2023-01-07T02:08:13.450Z,100989.41
2023-01-07T02:10:40.151Z,100994.91
2023-01-07T02:13:06.655Z,100997.84
2023-01-07T02:15:51.789Z,100994.53
2023-01-07T02:18:43.490Z,100985.94
2023-01-07T02:21:21.801Z,100975.41
2023-01-07T02:24:25.909Z,100981.88
2023-01-07T02:27:01.159Z,100982.06
2023-01-07T02:30:01.377Z,100981.56
2023-01-07T02:32:31.017Z,100974.81
2023-01-07T02:35:24.643Z,100979.25
2023-01-07T02:38:17.579Z,100981.09
2023-01-07T02:41:02.443Z,100996.31
2023-01-07T02:43:42.446Z,100997.50
2023-01-07T02:46:24.181Z,100995.25
2023-01-07T02:48:51.439Z,100988.53
2023-01-07T02:51:18.021Z,100988.97
2023-01-07T02:53:48.484Z,100994.63
2023-01-07T02:56:30.285Z,100987.03
2023-01-07T02:59:17.129Z,100986.25
2023-01-07T03:02:14.016Z,100988.28
2023-01-07T03:05:10.116Z,100983.03
2023-01-07T03:08:15.260Z,100983.91
2023-01-07T03:10:53.607Z,100983.34
2023-01-07T03:13:37.628Z,100980.94
2023-01-07T03:16:18.445Z,100987.38
2023-01-07T03:18:56.270Z,100975.22
2023-01-07T03:21:26.463Z,100977.22
2023-01-07T03:23:56.752Z,100982.91
2023-01-07T03:26:30.178Z,100979.56
2023-01-07T03:29:00.129Z,100981.69
2023-01-07T03:31:28.224Z,100980.06
2023-01-07T03:33:57.568Z,100976.72
2023-01-07T03:36:30.175Z,100969.69
2023-01-07T03:38:57.068Z,100975.81
2023-01-07T03:41:42.063Z,100965.31
2023-01-07T03:44:08.623Z,100973.41
2023-01-07T03:46:37.594Z,100984.91
2023-01-07T03:49:04.800Z,100972.88
2023-01-07T03:51:31.394Z,100973.75
2023-01-07T03:53:57.996Z,100972.31
2023-01-07T03:56:24.559Z,100981.34
2023-01-07T03:58:51.172Z,100977.19
2023-01-07T04:01:17.849Z,100978.34
2023-01-07T04:03:44.472Z,100972.16
2023-01-07T04:06:11.005Z,100978.56
2023-01-07T04:08:37.687Z,100976.09
2023-01-07T04:11:04.403Z,100971.13
2023-01-07T04:13:31.205Z,100974.69
2023-01-07T04:15:57.781Z,100971.25
2023-01-07T04:18:25.444Z,100971.31
2023-01-07T04:20:52.013Z,100969.59
2023-01-07T04:23:18.615Z,100965.47
2023-01-07T04:25:49.279Z,100974.22
2023-01-07T04:28:16.207Z,100972.50
2023-01-07T04:30:42.931Z,100971.66
2023-01-07T04:33:09.614Z,100968.38
2023-01-07T04:35:36.177Z,100980.78
2023-01-07T04:38:02.792Z,100980.00
2023-01-07T04:40:29.392Z,100981.09
2023-01-07T04:42:56.009Z,100985.50
2023-01-07T04:45:22.606Z,100983.78
2023-01-07T04:47:49.215Z,100983.00
2023-01-07T04:50:16.039Z,100984.03
2023-01-07T04:52:42.966Z,100984.28
2023-01-07T04:55:11.078Z,100988.72
2023-01-07T04:57:37.753Z,100978.34
2023-01-07T05:00:05.198Z,100981.13
2023-01-07T05:02:31.936Z,100985.78
2023-01-07T05:04:59.174Z,100990.22
2023-01-07T05:07:25.778Z,100994.72
2023-01-07T05:09:53.057Z,100991.34
2023-01-07T05:12:19.597Z,100990.47
2023-01-07T05:14:46.176Z,100996.69
2023-01-07T05:17:12.736Z,100994.03
2023-01-07T05:19:39.273Z,100993.13
2023-01-07T05:22:05.903Z,100986.94
2023-01-07T05:24:32.446Z,100987.78
2023-01-07T05:26:59.095Z,100985.88
2023-01-07T05:29:25.695Z,100992.84
2023-01-07T05:31:52.360Z,100997.13
2023-01-07T05:34:18.937Z,100991.72
2023-01-07T05:36:45.528Z,100995.28
2023-01-07T05:39:12.185Z,100993.63
2023-01-07T05:41:38.776Z,100998.28
2023-01-07T05:44:05.383Z,100995.88
2023-01-07T05:46:31.999Z,100996.88
2023-01-07T05:48:58.602Z,101002.28
2023-01-07T05:51:25.320Z,101001.53
2023-01-07T05:53:51.916Z,100998.78
2023-01-07T05:56:18.827Z,100999.56
2023-01-07T05:58:45.391Z,100991.59
2023-01-07T06:01:12.030Z,101001.31
2023-01-07T06:03:38.670Z,101001.31
2023-01-07T06:06:07.446Z,100994.16
2023-01-07T06:08:35.527Z,100990.59
2023-01-07T06:11:02.510Z,100987.19
2023-01-07T06:13:29.130Z,100990.69
2023-01-07T06:16:04.163Z,100994.19
2023-01-07T06:18:31.119Z,100988.75
2023-01-07T06:20:57.718Z,100999.34
2023-01-07T06:23:24.636Z,100991.72
2023-01-07T06:25:51.348Z,100996.13
2023-01-07T06:28:18.324Z,100999.50
2023-01-07T06:30:46.436Z,100980.91
2023-01-07T06:33:14.588Z,100996.66
2023-01-07T06:35:41.508Z,100986.06
2023-01-07T06:38:08.256Z,100986.94
2023-01-07T06:40:34.879Z,100984.19
2023-01-07T06:43:01.449Z,100988.50
2023-01-07T06:45:28.177Z,100984.03
2023-01-07T06:47:57.365Z,100983.97
2023-01-07T06:50:24.532Z,100983.91
2023-01-07T06:52:51.284Z,100987.25
2023-01-07T06:55:17.995Z,100992.38
2023-01-07T06:57:44.645Z,100991.50
2023-01-07T07:00:11.848Z,100995.94
2023-01-07T07:02:38.506Z,101003.94
2023-01-07T07:05:05.419Z,101005.59
2023-01-07T07:07:32.006Z,101002.72
2023-01-07T07:09:58.782Z,100994.44
2023-01-07T07:12:25.369Z,101007.38
2023-01-07T07:14:51.932Z,101008.88
2023-01-07T07:17:18.547Z,101008.66
2023-01-07T07:19:45.099Z,101010.34
2023-01-07T07:22:11.867Z,101010.13
2023-01-07T07:24:38.457Z,101014.38
2023-01-07T07:27:05.055Z,101007.94
2023-01-07T07:29:31.649Z,101019.94
2023-01-07T07:31:58.310Z,101011.63
2023-01-07T07:34:24.913Z,101013.03
2023-01-07T07:36:51.508Z,101016.25
2023-01-07T07:39:18.151Z,101009.81
2023-01-07T07:41:44.973Z,101011.16
2023-01-07T07:44:11.583Z,101004.38
2023-01-07T07:46:39.586Z,101005.25
2023-01-07T07:49:09.568Z,101011.47
2023-01-07T07:51:36.119Z,101014.31
2023-01-07T07:54:02.747Z,101020.72
2023-01-07T07:56:29.461Z,101010.97
2023-01-07T07:58:56.012Z,101017.03
2023-01-07T08:01:22.769Z,101014.88
2023-01-07T08:03:49.393Z,101013.47
2023-01-07T08:06:16.043Z,101012.91
2023-01-07T08:08:42.694Z,101001.53
2023-01-07T08:11:09.650Z,101005.88
2023-01-07T08:13:36.239Z,101004.09
2023-01-07T08:16:02.856Z,101004.09
2023-01-07T08:18:29.485Z,101001.97
2023-01-07T08:20:56.375Z,100991.31
2023-01-07T08:23:23.282Z,100995.97
2023-01-07T08:25:49.817Z,100989.72
2023-01-07T08:28:16.466Z,100991.41
2023-01-07T08:30:43.107Z,100992.31
2023-01-07T08:33:09.762Z,100987.28
2023-01-07T08:35:36.419Z,100980.03
2023-01-07T08:38:08.706Z,100979.06
2023-01-07T08:40:36.883Z,100980.31
2023-01-07T08:43:07.457Z,100983.00
2023-01-07T08:45:34.466Z,100982.56
2023-01-07T08:48:01.195Z,100975.81
2023-01-07T08:50:29.960Z,100970.66
2023-01-07T08:52:56.817Z,100970.75
2023-01-07T08:55:23.815Z,100966.31
2023-01-07T08:57:52.188Z,100958.13
2023-01-07T09:00:19.527Z,100959.19
2023-01-07T09:02:46.332Z,100965.84
2023-01-07T09:05:13.518Z,100974.06
2023-01-07T09:07:40.163Z,100962.19
2023-01-07T09:10:07.495Z,100958.69
2023-01-07T09:12:34.137Z,100968.28
2023-01-07T09:15:00.794Z,100956.69
2023-01-07T09:17:28.081Z,100958.53
2023-01-07T09:19:54.764Z,100961.16
2023-01-07T09:22:22.220Z,100962.94
2023-01-07T09:24:48.801Z,100964.34
2023-01-07T09:27:16.698Z,100957.50
2023-01-07T09:29:43.486Z,100959.47
2023-01-07T09:32:10.717Z,100954.47
2023-01-07T09:34:38.468Z,100953.84
2023-01-07T09:37:06.212Z,100956.22
2023-01-07T09:39:33.056Z,100949.50
2023-01-07T09:42:33.801Z,100936.06
2023-01-07T09:45:45.500Z,100933.78
2023-01-07T09:48:22.033Z,100930.97
2023-01-07T09:51:02.045Z,100928.91
2023-01-07T09:53:39.409Z,100929.22
2023-01-07T09:56:12.979Z,100917.56
2023-01-07T09:58:42.533Z,100912.69
2023-01-07T10:01:32.141Z,100914.63
2023-01-07T10:04:10.903Z,100906.84
2023-01-07T10:07:45.044Z,100915.47
2023-01-07T10:10:26.080Z,100923.03
2023-01-07T10:13:20.350Z,100917.66
2023-01-07T10:16:22.353Z,100901.50
2023-01-07T10:19:27.352Z,100902.22
2023-01-07T10:21:58.950Z,100893.81
2023-01-07T10:24:28.795Z,100899.94
2023-01-07T10:27:01.564Z,100900.72
2023-01-07T10:29:44.711Z,100903.53
2023-01-07T10:32:16.890Z,100898.03
2023-01-07T10:34:56.695Z,100900.78
2023-01-07T10:37:36.368Z,100890.78
2023-01-07T10:40:24.224Z,100892.91
2023-01-07T10:43:16.224Z,100881.28
2023-01-07T10:45:54.950Z,100892.19
2023-01-07T10:48:30.216Z,100887.47
2023-01-07T10:51:18.127Z,100877.81
2023-01-07T10:54:15.563Z,100878.66
2023-01-07T10:56:49.611Z,100877.94
2023-01-07T10:59:19.562Z,100868.88
2023-01-07T11:01:50.533Z,100872.13
2023-01-07T11:04:17.941Z,100873.09
2023-01-07T11:06:47.747Z,100866.84
2023-01-07T11:09:20.011Z,100857.75
2023-01-07T11:11:48.361Z,100853.63
2023-01-07T11:14:37.667Z,100849.94
2023-01-07T11:17:18.476Z,100850.00
2023-01-07T11:19:54.196Z,100842.31
2023-01-07T11:22:26.899Z,100844.19
2023-01-07T11:24:58.593Z,100836.06
2023-01-07T11:27:30.297Z,100834.63
2023-01-07T11:30:05.503Z,100833.69
2023-01-07T11:32:35.332Z,100820.91
2023-01-07T11:35:18.092Z,100816.31
2023-01-07T11:37:48.601Z,100821.41
2023-01-07T11:40:15.161Z,100821.81
2023-01-07T11:43:20.328Z,100813.78
2023-01-07T11:46:19.644Z,100819.38
2023-01-07T11:48:50.022Z,100806.03
2023-01-07T11:51:17.092Z,100804.34
2023-01-07T11:53:52.848Z,100803.13
2023-01-07T11:56:30.621Z,100800.97
2023-01-07T11:59:12.380Z,100804.59
2023-01-07T12:01:43.407Z,100792.09
2023-01-07T12:04:29.665Z,100788.53
2023-01-07T12:07:00.384Z,100788.91
2023-01-07T12:09:33.840Z,100782.56
2023-01-07T12:12:31.939Z,100779.84
2023-01-07T12:15:05.930Z,100778.25
2023-01-07T12:17:35.221Z,100770.34
2023-01-07T12:20:33.450Z,100763.56
2023-01-07T12:23:25.918Z,100764.78
2023-01-07T12:26:12.691Z,100759.13
2023-01-07T12:29:01.999Z,100765.50
2023-01-07T12:32:12.052Z,100758.09
2023-01-07T12:35:15.487Z,100760.72
2023-01-07T12:37:48.648Z,100760.13
2023-01-07T12:40:18.178Z,100753.44
2023-01-07T12:42:53.886Z,100749.91
2023-01-07T12:45:33.911Z,100747.38
2023-01-07T12:48:07.067Z,100743.63
2023-01-07T12:50:43.641Z,100753.00
2023-01-07T12:53:36.593Z,100751.06
2023-01-07T12:56:23.931Z,100750.13
2023-01-07T12:58:55.196Z,100752.38
2023-01-07T13:01:30.224Z,100747.25
2023-01-07T13:03:56.773Z,100744.53
2023-01-07T13:06:38.469Z,100740.09
2023-01-07T13:09:18.318Z,100737.38
2023-01-07T13:12:45.915Z,100741.97
2023-01-07T13:15:22.986Z,100742.03
2023-01-07T13:17:51.279Z,100736.94
2023-01-07T13:20:28.416Z,100738.91
2023-01-07T13:22:57.938Z,100741.44
2023-01-07T13:25:39.914Z,100735.94
2023-01-07T13:28:21.733Z,100739.00
2023-01-07T13:31:10.288Z,100729.09
2023-01-07T13:33:36.839Z,100729.59
2023-01-07T13:36:06.411Z,100729.53
2023-01-07T13:38:54.087Z,100725.78
2023-01-07T13:41:34.587Z,100730.66
2023-01-07T13:44:43.227Z,100738.09
2023-01-07T13:47:14.539Z,100724.97
2023-01-07T13:49:56.495Z,100723.72
2023-01-07T13:52:27.703Z,100725.81
2023-01-07T13:54:56.933Z,100724.75
2023-01-07T13:57:23.437Z,100731.28
2023-01-07T13:59:52.850Z,100732.28
2023-01-07T14:02:28.343Z,100733.63
2023-01-07T14:05:29.210Z,100732.81
2023-01-07T14:07:59.901Z,100743.16
2023-01-07T14:10:34.965Z,100739.63
2023-01-07T14:13:20.555Z,100743.59
2023-01-07T14:15:59.503Z,100745.16
2023-01-07T14:18:48.273Z,100747.91
2023-01-07T14:21:22.530Z,100748.75
2023-01-07T14:24:04.033Z,100739.81
2023-01-07T14:26:41.966Z,100749.84
2023-01-07T14:29:11.222Z,100748.81
2023-01-07T14:31:37.921Z,100741.84
2023-01-07T14:34:19.163Z,100740.34
2023-01-07T14:37:09.738Z,100744.47
2023-01-07T14:39:44.688Z,100754.84
2023-01-07T14:42:20.357Z,100749.38
2023-01-07T14:44:48.706Z,100756.44
2023-01-07T14:47:41.034Z,100752.56
2023-01-07T14:50:22.158Z,100752.22
2023-01-07T14:52:48.675Z,100757.78
2023-01-07T14:55:38.044Z,100758.56
2023-01-07T14:58:25.755Z,100754.78
2023-01-07T15:00:58.502Z,100755.38
2023-01-07T15:03:59.524Z,100762.09
2023-01-07T15:06:30.910Z,100761.09
2023-01-07T15:09:24.344Z,100753.69
2023-01-07T15:12:11.848Z,100760.16
2023-01-07T15:15:07.861Z,100756.34
2023-01-07T15:17:38.324Z,100762.78
2023-01-07T15:20:06.484Z,100760.06
2023-01-07T15:23:06.990Z,100760.91
2023-01-07T15:25:56.527Z,100762.84
2023-01-07T15:28:36.355Z,100759.63
2023-01-07T15:31:36.866Z,100763.41
2023-01-07T15:34:16.625Z,100763.09
2023-01-07T15:36:49.801Z,100768.84
2023-01-07T15:39:41.377Z,100775.91
2023-01-07T15:42:16.145Z,100781.97
2023-01-07T15:44:43.183Z,100779.66
2023-01-07T15:47:41.617Z,100784.88
2023-01-07T15:50:30.980Z,100784.88
2023-01-07T15:53:22.191Z,100773.88
2023-01-07T15:55:48.716Z,100781.63
2023-01-07T15:58:19.642Z,100783.84
2023-01-07T16:00:54.482Z,100785.50
2023-01-07T16:03:21.925Z,100786.75
2023-01-07T16:05:48.824Z,100789.75
2023-01-07T16:08:27.177Z,100783.88
2023-01-07T16:11:03.878Z,100785.78
2023-01-07T16:13:31.497Z,100778.06
2023-01-07T16:16:03.245Z,100777.59
2023-01-07T16:18:34.156Z,100774.66
2023-01-07T16:21:12.755Z,100778.19
2023-01-07T16:23:40.381Z,100779.16
2023-01-07T16:26:08.548Z,100786.13
2023-01-07T16:28:41.965Z,100782.44
2023-01-07T16:31:15.070Z,100776.81
2023-01-07T16:33:43.169Z,100784.56
2023-01-07T16:36:23.161Z,100794.19
2023-01-07T16:38:56.836Z,100790.88
2023-01-07T16:41:28.609Z,100796.47
2023-01-07T16:43:56.689Z,100796.09
2023-01-07T16:46:27.528Z,100796.47
2023-01-07T16:49:09.693Z,100802.16
2023-01-07T16:51:47.229Z,100803.59
2023-01-07T16:54:28.257Z,100801.59
2023-01-07T16:56:55.927Z,100802.19
2023-01-07T16:59:26.427Z,100805.03
2023-01-07T17:01:53.736Z,100805.50
2023-01-07T17:04:27.812Z,100805.44
2023-01-07T17:06:54.647Z,100804.69
2023-01-07T17:09:32.705Z,100802.97
2023-01-07T17:11:59.459Z,100809.75
2023-01-07T17:14:38.206Z,100812.88
2023-01-07T17:17:19.634Z,100812.34
2023-01-07T17:20:12.541Z,100809.16
2023-01-07T17:22:39.591Z,100806.06
2023-01-07T17:25:07.105Z,100813.34
2023-01-07T17:27:34.785Z,100808.19
2023-01-07T17:30:03.084Z,100806.81
2023-01-07T17:32:31.226Z,100811.66
2023-01-07T17:35:04.037Z,100810.69
2023-01-07T17:37:31.887Z,100811.66
2023-01-07T17:39:58.623Z,100810.16
2023-01-07T17:42:47.988Z,100818.28
2023-01-07T17:45:17.071Z,100819.38
2023-01-07T17:47:43.809Z,100814.00
2023-01-07T17:50:13.442Z,100819.50
2023-01-07T17:52:42.155Z,100818.63
2023-01-07T17:55:14.101Z,100819.69
2023-01-07T17:57:40.656Z,100820.75
2023-01-07T18:00:12.511Z,100825.25
2023-01-07T18:02:39.203Z,100825.59
2023-01-07T18:05:06.319Z,100820.47
2023-01-07T18:07:32.850Z,100826.13
2023-01-07T18:09:59.449Z,100820.34
2023-01-07T18:12:33.407Z,100824.19
2023-01-07T18:15:04.248Z,100822.81
2023-01-07T18:17:30.934Z,100826.56
2023-01-07T18:19:57.560Z,100820.53
2023-01-07T18:22:25.348Z,100815.16
2023-01-07T18:24:52.127Z,100824.94
2023-01-07T18:27:19.335Z,100821.47
2023-01-07T18:29:45.971Z,100817.19
2023-01-07T18:32:12.568Z,100820.19
2023-01-07T18:34:39.156Z,100815.91
2023-01-07T18:37:06.064Z,100824.91
2023-01-07T18:39:32.672Z,100831.13
2023-01-07T18:41:59.279Z,100826.84
2023-01-07T18:44:26.002Z,100821.59
2023-01-07T18:46:52.628Z,100827.25
2023-01-07T18:49:19.341Z,100826.28
2023-01-07T18:51:47.680Z,100824.59
2023-01-07T18:54:15.350Z,100824.69
2023-01-07T18:56:42.025Z,100823.81
2023-01-07T18:59:08.613Z,100828.50
2023-01-07T19:01:35.304Z,100822.31
2023-01-07T19:04:02.586Z,100819.66
2023-01-07T19:06:29.277Z,100821.34
2023-01-07T19:08:56.989Z,100812.34
2023-01-07T19:11:23.658Z,100814.16
2023-01-07T19:13:50.254Z,100812.34
2023-01-07T19:16:16.869Z,100815.13
2023-01-07T19:18:43.471Z,100814.28
2023-01-07T19:21:12.168Z,100811.91
2023-01-07T19:23:38.972Z,100813.94
2023-01-07T19:26:08.377Z,100815.09
2023-01-07T19:28:35.687Z,100820.44
2023-01-07T19:31:07.160Z,100805.25
2023-01-07T19:33:34.897Z,100811.75
2023-01-07T19:36:03.704Z,100807.38
2023-01-07T19:38:30.645Z,100812.81
2023-01-07T19:40:57.239Z,100812.94
2023-01-07T19:43:23.900Z,100805.84
2023-01-07T19:45:55.599Z,100803.31
2023-01-07T19:48:23.330Z,100805.22
2023-01-07T19:51:08.725Z,100800.72
2023-01-07T19:53:35.787Z,100810.47
2023-01-07T19:56:05.538Z,100807.03
2023-01-07T19:58:32.801Z,100807.22
2023-01-07T20:01:07.698Z,100808.28
2023-01-07T20:03:35.455Z,100805.53
2023-01-07T20:06:10.118Z,100801.97
2023-01-07T20:08:37.139Z,100797.59
2023-01-07T20:11:03.982Z,100791.50
2023-01-07T20:13:35.623Z,100794.16
2023-01-07T20:16:07.361Z,100791.50
2023-01-07T20:18:42.646Z,100783.47
2023-01-07T20:21:10.131Z,100789.66
2023-01-07T20:23:41.041Z,100781.75
2023-01-07T20:26:18.715Z,100778.94
2023-01-07T20:28:46.186Z,100777.16
2023-01-07T20:31:15.028Z,100776.28
2023-01-07T20:33:42.459Z,100778.13
2023-01-07T20:36:12.180Z,100778.13
2023-01-07T20:38:39.287Z,100766.53
2023-01-07T20:41:08.529Z,100775.44
2023-01-07T20:43:36.559Z,100770.19
2023-01-07T20:46:06.177Z,100771.16
2023-01-07T20:48:33.789Z,100769.34
2023-01-07T20:51:05.278Z,100770.19
2023-01-07T20:53:31.963Z,100776.41
2023-01-07T20:56:00.047Z,100766.44
2023-01-07T20:58:27.936Z,100759.38
2023-01-07T21:00:54.624Z,100770.09
2023-01-07T21:03:21.447Z,100764.75
2023-01-07T21:05:48.148Z,100766.53
2023-01-07T21:08:14.771Z,100770.19
2023-01-07T21:10:41.552Z,100770.28
2023-01-07T21:13:08.153Z,100767.72
2023-01-07T21:15:36.576Z,100760.63
2023-01-07T21:18:03.274Z,100762.47
2023-01-07T21:20:29.907Z,100761.59
2023-01-07T21:22:56.431Z,100756.34
2023-01-07T21:25:23.067Z,100750.16
2023-01-07T21:27:49.706Z,100751.00
2023-01-07T21:30:18.180Z,100754.53
2023-01-07T21:32:44.951Z,100753.66
2023-01-07T21:35:12.403Z,100758.19
2023-01-07T21:37:39.872Z,100751.13
2023-01-07T21:40:07.340Z,100751.13
2023-01-07T21:42:36.687Z,100749.41
2023-01-07T21:45:03.964Z,100752.84
2023-01-07T21:47:30.636Z,100751.88
2023-01-07T21:49:58.405Z,100746.41
2023-01-07T21:52:25.108Z,100749.94
2023-01-07T21:54:52.015Z,100746.41
2023-01-07T21:57:19.511Z,100739.22
2023-01-07T21:59:46.431Z,100737.53
2023-01-07T22:02:13.773Z,100737.53
2023-01-07T22:04:43.475Z,100737.63
2023-01-07T22:07:14.000Z,100731.53
2023-01-07T22:09:40.958Z,100734.19
2023-01-07T22:12:08.689Z,100733.25
2023-01-07T22:14:35.281Z,100731.63
2023-01-07T22:17:01.916Z,100731.63
2023-01-07T22:19:28.711Z,100729.72
2023-01-07T22:21:55.620Z,100729.81
2023-01-07T22:24:22.179Z,100725.44
2023-01-07T22:26:48.870Z,100724.66
2023-01-07T22:29:17.373Z,100712.16
2023-01-07T22:31:48.183Z,100721.88
2023-01-07T22:34:14.903Z,100711.28
2023-01-07T22:36:48.140Z,100713.13
2023-01-07T22:39:25.959Z,100700.59
2023-01-07T22:41:57.338Z,100701.47
2023-01-07T22:44:33.338Z,100691.63
2023-01-07T22:47:00.235Z,100695.22
2023-01-07T22:49:30.484Z,100696.09
2023-01-07T22:51:57.483Z,100686.38
2023-01-07T22:54:26.131Z,100687.34
2023-01-07T22:56:53.001Z,100689.03
2023-01-07T22:59:19.542Z,100687.34
2023-01-07T23:01:46.114Z,100681.13
2023-01-07T23:04:13.259Z,100683.78
2023-01-07T23:06:39.926Z,100676.63
2023-01-07T23:09:06.635Z,100683.59
2023-01-07T23:11:48.282Z,100680.06
2023-01-07T23:14:16.849Z,100679.97
2023-01-07T23:16:43.835Z,100674.81
2023-01-07T23:19:10.851Z,100668.63
2023-01-07T23:21:40.104Z,100666.88
2023-01-07T23:24:07.380Z,100669.56
2023-01-07T23:26:33.935Z,100671.16
2023-01-07T23:29:00.499Z,100667.75
2023-01-07T23:31:27.291Z,100671.38
2023-01-07T23:33:53.912Z,100664.31
2023-01-07T23:36:20.485Z,100666.13
2023-01-07T23:38:47.156Z,100662.63
2023-01-07T23:41:13.964Z,100662.72
2023-01-07T23:43:40.658Z,100660.03
2023-01-07T23:46:08.436Z,100654.69
2023-01-07T23:48:37.231Z,100656.41
2023-01-07T23:51:09.562Z,100645.69
2023-01-07T23:53:36.436Z,100646.56
2023-01-07T23:56:03.724Z,100651.94
2023-01-07T23:58:30.841Z,100656.31
